Airfield :
LOGIN :

Register | Disclaimer

   EN    FR    IT 

 










Legend :    VFR   Marginal VFR   IFR   Intensive IFR   Very Intensive IFR
Visi :
Ceiling :
>= 8 km
>= 3000ft
5 to 8 km
1000 to 3000 ft
1500m to 5 km
500 to 1000 ft
800 to 1500m
200 to 500 ft
< 800m
< 200 ft
Symbols :   Thunderstorms  Fog  Heavy snow  Heavy precipitations  Wind > 20 kt
SIGMETs :     Misc.  Thunderstorms  Icing  Turbulence  Mountain Waves  Volcanic Ashes






- Airport Elevation : 53 ft
- IATA code : AGP


LEMG - Malaga

CURRENT METAR :
  • 080600Z 18004KT 110V250 CAVOK 25/13 Q1014 NOSIG

EXPIRED METARs :
  • 080530Z 16004KT 110V240 CAVOK 25/14 Q1013 NOSIG
  • 080500Z 36002KT CAVOK 24/16 Q1013 NOSIG
  • 080430Z 23003KT 170V290 CAVOK 24/16 Q1013 NOSIG
  • 080400Z VRB05KT CAVOK 24/15 Q1013 NOSIG
  • 080330Z 19004KT 160V230 CAVOK 25/14 Q1013 NOSIG

TAF TAF LEMG
Valid from the 08 at 06:00 until the 09 at 06:00 UTC


080500Z 0806/0906 VRB02KT CAVOK TX31/0813Z TN22/0905Z
BECMG 0807/0810 14008KT
BECMG 0818/0821 VRB02KT
PROB40
TEMPO 0900/0906 29006KT



MET'MAP, your aeronautical weather chart ! - Copyright ORBIFLY December 2007 - Disclaimer

ORBIFLY MET'MAP TEAM :

Programming & Development : Alexandra Zaïnal
Concept & original design : Baudouin d'Aumeries
Assistance for programming : Marc-Olivier Méhu
Technical & hardware support : Manuel Goepfert

Contact : metmap@orbifly.com




SOURCES & CREDITS :

   NOAA